createdAt,value
2022-08-01T00:00:31.528Z,1.50
2022-08-01T00:03:17.158Z,1.98
2022-08-01T00:06:03.168Z,1.73
2022-08-01T00:08:49.015Z,1.70
2022-08-01T00:11:34.737Z,1.70
2022-08-01T00:14:20.439Z,1.77
2022-08-01T00:17:17.850Z,1.70
2022-08-01T00:20:06.080Z,1.95
2022-08-01T00:22:51.941Z,1.38
2022-08-01T00:25:37.556Z,1.60
2022-08-01T00:28:23.164Z,1.70
2022-08-01T00:31:09.054Z,1.45
2022-08-01T00:33:55.029Z,1.63
2022-08-01T00:36:41.469Z,1.85
2022-08-01T00:39:27.228Z,1.42
2022-08-01T00:42:13.942Z,1.45
2022-08-01T00:44:59.780Z,1.75
2022-08-01T00:47:45.663Z,1.50
2022-08-01T00:50:31.358Z,1.52
2022-08-01T00:53:18.731Z,1.70
2022-08-01T00:56:05.325Z,1.98
2022-08-01T00:58:51.281Z,1.60
2022-08-01T01:01:39.390Z,1.40
2022-08-01T01:04:25.847Z,1.60
2022-08-01T01:07:20.152Z,1.50
2022-08-01T01:10:41.528Z,1.52
2022-08-01T01:13:50.453Z,1.52
2022-08-01T01:16:41.932Z,1.38
2022-08-01T01:19:31.800Z,1.83
2022-08-01T01:22:53.018Z,1.80
2022-08-01T01:25:38.741Z,1.70
2022-08-01T01:28:45.196Z,1.70
2022-08-01T01:31:36.280Z,1.63
2022-08-01T01:34:23.557Z,2.00
2022-08-01T01:37:16.929Z,1.95
2022-08-01T01:40:05.231Z,1.60
2022-08-01T01:42:52.810Z,1.50
2022-08-01T01:45:39.977Z,1.42
2022-08-01T01:48:27.193Z,1.70
2022-08-01T01:51:14.249Z,1.70
2022-08-01T01:54:02.074Z,1.73
2022-08-01T01:56:51.273Z,1.50
2022-08-01T01:59:40.486Z,2.00
2022-08-01T02:02:27.735Z,2.03
2022-08-01T02:05:14.553Z,1.50
2022-08-01T02:08:00.495Z,1.80
2022-08-01T02:11:07.425Z,1.60
2022-08-01T02:14:02.609Z,1.48
2022-08-01T02:16:50.796Z,1.30
2022-08-01T02:19:38.686Z,1.38
2022-08-01T02:22:33.257Z,1.75
2022-08-01T02:25:37.336Z,1.38
2022-08-01T02:28:33.798Z,1.60
2022-08-01T02:31:22.739Z,1.52
2022-08-01T02:34:13.036Z,1.50
2022-08-01T02:37:01.348Z,1.60
2022-08-01T02:39:51.882Z,1.65
2022-08-01T02:42:40.023Z,1.42
2022-08-01T02:45:29.669Z,1.63
2022-08-01T02:48:18.122Z,1.70
2022-08-01T02:51:05.438Z,1.60
2022-08-01T02:53:53.020Z,1.63
2022-08-01T02:56:41.688Z,1.40
2022-08-01T02:59:28.885Z,1.73
2022-08-01T03:02:16.702Z,2.22
2022-08-01T03:05:03.778Z,1.98
2022-08-01T03:07:50.106Z,1.90
2022-08-01T03:10:39.223Z,1.60
2022-08-01T03:13:26.976Z,1.67
2022-08-01T03:16:14.411Z,1.60
2022-08-01T03:19:02.873Z,1.75
2022-08-01T03:21:50.400Z,1.77
2022-08-01T03:24:40.513Z,1.92
2022-08-01T03:27:27.221Z,1.90
2022-08-01T03:30:14.073Z,1.90
2022-08-01T03:33:00.889Z,1.90
2022-08-01T03:35:56.657Z,1.95
2022-08-01T03:38:44.453Z,1.77
2022-08-01T03:41:38.654Z,1.77
2022-08-01T03:44:27.972Z,2.13
2022-08-01T03:47:15.590Z,2.28
2022-08-01T03:50:03.988Z,2.30
2022-08-01T03:52:52.129Z,2.50
2022-08-01T03:55:40.232Z,2.33
2022-08-01T03:58:28.068Z,2.50
2022-08-01T04:01:15.638Z,2.53
2022-08-01T04:04:02.519Z,2.60
2022-08-01T04:06:51.433Z,2.97
2022-08-01T04:09:37.254Z,2.53
2022-08-01T04:12:23.634Z,2.60
2022-08-01T04:15:09.565Z,2.70
2022-08-01T04:17:55.360Z,2.63
2022-08-01T04:20:41.609Z,2.20
2022-08-01T04:23:32.580Z,2.40
2022-08-01T04:26:19.412Z,2.33
2022-08-01T04:29:07.561Z,2.40
2022-08-01T04:31:55.497Z,2.28
2022-08-01T04:34:47.142Z,2.10
2022-08-01T04:37:33.412Z,2.08
2022-08-01T04:40:22.772Z,1.92
2022-08-01T04:43:09.133Z,2.10
2022-08-01T04:45:56.351Z,2.20
2022-08-01T04:48:42.178Z,2.00
2022-08-01T04:51:28.132Z,2.05
2022-08-01T04:54:13.754Z,2.10
2022-08-01T04:57:03.478Z,1.92
2022-08-01T04:59:50.536Z,1.90
2022-08-01T05:02:36.593Z,2.10
2022-08-01T05:05:22.021Z,2.00
2022-08-01T05:08:07.783Z,2.03
2022-08-01T05:10:53.802Z,1.80
2022-08-01T05:13:39.504Z,1.88
2022-08-01T05:16:25.643Z,1.85
2022-08-01T05:19:11.088Z,1.65
2022-08-01T05:22:00.193Z,1.67
2022-08-01T05:24:47.260Z,2.15
2022-08-01T05:27:39.276Z,1.73
2022-08-01T05:30:24.710Z,1.88
2022-08-01T05:33:10.788Z,1.60
2022-08-01T05:35:56.367Z,1.52
2022-08-01T05:38:42.010Z,1.70
2022-08-01T05:41:27.714Z,1.73
2022-08-01T05:44:13.375Z,2.00
2022-08-01T05:46:59.046Z,1.60
2022-08-01T05:49:45.875Z,1.92
2022-08-01T05:52:31.880Z,1.58
2022-08-01T05:55:17.783Z,1.65
2022-08-01T05:58:03.567Z,1.48
2022-08-01T06:00:49.470Z,1.70
2022-08-01T06:03:35.673Z,1.77
2022-08-01T06:06:25.198Z,1.80
2022-08-01T06:09:11.718Z,1.58
2022-08-01T06:11:57.617Z,1.58
2022-08-01T06:14:43.292Z,1.80
2022-08-01T06:17:28.684Z,1.67
2022-08-01T06:20:14.555Z,1.65
2022-08-01T06:23:02.478Z,1.83
2022-08-01T06:25:48.530Z,1.42
2022-08-01T06:28:34.303Z,1.40
2022-08-01T06:31:19.813Z,1.88
2022-08-01T06:34:05.829Z,1.50
2022-08-01T06:36:51.509Z,1.50
2022-08-01T06:39:37.233Z,1.80
2022-08-01T06:42:23.093Z,1.60
2022-08-01T06:45:11.068Z,1.63
2022-08-01T06:47:56.741Z,1.80
2022-08-01T06:50:42.815Z,2.65
2022-08-01T06:53:28.502Z,2.58
2022-08-01T06:56:14.208Z,2.05
2022-08-01T06:59:01.954Z,2.00
2022-08-01T07:01:47.987Z,1.92
2022-08-01T07:04:33.577Z,2.08
2022-08-01T07:07:19.366Z,2.00
2022-08-01T07:10:05.367Z,1.67
2022-08-01T07:12:51.354Z,1.70
2022-08-01T07:15:36.909Z,1.52
2022-08-01T07:18:22.548Z,1.50
2022-08-01T07:21:38.166Z,1.45
2022-08-01T07:24:20.838Z,1.58
2022-08-01T07:27:23.000Z,1.13
2022-08-01T07:30:10.196Z,1.63
2022-08-01T07:32:55.870Z,2.00
2022-08-01T07:35:41.705Z,1.50
2022-08-01T07:38:27.186Z,1.55
2022-08-01T07:41:13.524Z,1.67
2022-08-01T07:44:04.338Z,1.65
2022-08-01T07:46:50.809Z,1.45
2022-08-01T07:49:40.258Z,1.50
2022-08-01T07:52:26.318Z,1.42
2022-08-01T07:55:16.698Z,1.58
2022-08-01T07:58:02.781Z,1.60
2022-08-01T08:00:48.759Z,2.05
2022-08-01T08:03:34.319Z,1.60
2022-08-01T08:06:20.534Z,1.40
2022-08-01T08:09:06.343Z,1.27
2022-08-01T08:11:51.813Z,1.40
2022-08-01T08:14:38.202Z,1.23
2022-08-01T08:17:24.066Z,1.60
2022-08-01T08:20:10.086Z,1.63
2022-08-01T08:22:56.628Z,1.35
2022-08-01T08:25:42.517Z,1.60
2022-08-01T08:28:28.469Z,1.80
2022-08-01T08:31:25.556Z,1.42
2022-08-01T08:34:20.900Z,1.75
2022-08-01T08:37:08.334Z,2.08
2022-08-01T08:39:55.542Z,3.13
2022-08-01T08:42:42.037Z,1.92
2022-08-01T08:45:30.830Z,2.42
2022-08-01T08:48:34.775Z,2.10
2022-08-01T08:51:22.073Z,2.17
2022-08-01T08:54:11.482Z,1.60
2022-08-01T08:56:57.494Z,1.55
2022-08-01T08:59:46.392Z,1.55
2022-08-01T09:02:32.572Z,1.50
2022-08-01T09:05:20.138Z,1.50
2022-08-01T09:08:09.833Z,1.65
2022-08-01T09:10:55.344Z,1.60
2022-08-01T09:13:45.276Z,2.15
2022-08-01T09:16:32.976Z,1.52
2022-08-01T09:19:40.625Z,1.60
2022-08-01T09:22:26.530Z,2.08
2022-08-01T09:25:12.209Z,2.05
2022-08-01T09:28:07.088Z,1.80
2022-08-01T09:30:53.207Z,2.28
2022-08-01T09:33:55.382Z,2.60
2022-08-01T09:37:07.783Z,1.92
2022-08-01T09:39:58.458Z,2.38
2022-08-01T09:42:44.673Z,1.88
2022-08-01T09:45:41.902Z,2.20
2022-08-01T09:48:33.585Z,2.47
2022-08-01T09:51:58.812Z,1.98
2022-08-01T09:54:39.328Z,2.70
2022-08-01T09:57:26.063Z,2.42
2022-08-01T10:00:43.739Z,2.70
2022-08-01T10:03:28.219Z,2.63
2022-08-01T10:06:24.950Z,1.90
2022-08-01T10:09:13.387Z,2.00
2022-08-01T10:12:00.916Z,2.30
2022-08-01T10:14:50.681Z,2.72
2022-08-01T10:17:50.604Z,3.20
2022-08-01T10:20:37.791Z,2.08
2022-08-01T10:23:39.883Z,2.75
2022-08-01T10:26:28.682Z,3.40
2022-08-01T10:29:46.792Z,3.45
2022-08-01T10:32:25.375Z,2.70
2022-08-01T10:35:18.276Z,3.22
2022-08-01T10:38:27.134Z,3.45
2022-08-01T10:41:16.374Z,2.58
2022-08-01T10:44:03.696Z,2.30
2022-08-01T10:46:53.790Z,3.00
2022-08-01T10:50:02.845Z,3.00
2022-08-01T10:53:23.041Z,2.70
2022-08-01T10:56:12.734Z,2.10
2022-08-01T10:59:06.577Z,2.13
2022-08-01T11:01:59.658Z,2.10
2022-08-01T11:05:01.775Z,1.95
2022-08-01T11:07:53.895Z,1.95
2022-08-01T11:10:43.960Z,1.73
2022-08-01T11:13:59.111Z,1.52
2022-08-01T11:16:45.392Z,1.70
2022-08-01T11:20:04.723Z,1.30
2022-08-01T11:23:03.253Z,1.60
2022-08-01T11:26:05.964Z,1.83
2022-08-01T11:29:22.099Z,1.92
2022-08-01T11:32:27.947Z,1.60
2022-08-01T11:35:17.100Z,1.30
2022-08-01T11:38:29.450Z,1.50
2022-08-01T11:41:37.417Z,1.70
2022-08-01T11:44:30.125Z,1.45
2022-08-01T11:47:16.896Z,1.52
2022-08-01T11:50:07.612Z,1.30
2022-08-01T11:53:05.865Z,1.42
2022-08-01T11:55:53.806Z,1.30
2022-08-01T11:58:40.289Z,1.40
2022-08-01T12:01:29.324Z,1.13
2022-08-01T12:04:15.338Z,1.40
2022-08-01T12:07:16.467Z,1.23
2022-08-01T12:10:02.770Z,1.10
2022-08-01T12:12:57.799Z,1.20
2022-08-01T12:15:44.409Z,1.13
2022-08-01T12:18:42.438Z,1.27
2022-08-01T12:21:28.248Z,1.20
2022-08-01T12:24:23.228Z,1.30
2022-08-01T12:27:10.804Z,1.48
2022-08-01T12:29:58.357Z,1.20
2022-08-01T12:32:48.918Z,1.38
2022-08-01T12:35:35.273Z,1.40
2022-08-01T12:38:27.890Z,1.58
2022-08-01T12:41:14.642Z,1.30
2022-08-01T12:44:00.454Z,1.40
2022-08-01T12:46:46.622Z,1.80
2022-08-01T12:49:39.146Z,1.50
2022-08-01T12:55:18.849Z,1.95
2022-08-01T12:58:16.300Z,1.38
2022-08-01T13:01:08.718Z,1.50
2022-08-01T13:04:04.900Z,1.30
2022-08-01T13:06:54.990Z,1.40
2022-08-01T13:09:53.101Z,1.40
2022-08-01T13:12:40.154Z,1.40
2022-08-01T13:15:31.933Z,1.55
2022-08-01T13:18:32.477Z,1.60
2022-08-01T13:21:24.454Z,1.40
2022-08-01T13:24:11.921Z,1.50
2022-08-01T13:27:04.800Z,1.52
2022-08-01T13:29:53.938Z,1.48
2022-08-01T13:32:40.422Z,1.63
2022-08-01T13:35:26.594Z,1.55
2022-08-01T13:38:13.116Z,1.50
2022-08-01T13:40:59.607Z,1.20
2022-08-01T13:43:58.515Z,1.80
2022-08-01T13:46:49.682Z,1.60
2022-08-01T13:49:38.062Z,1.40
2022-08-01T13:52:26.426Z,1.50
2022-08-01T13:55:12.354Z,1.63
2022-08-01T13:57:58.853Z,1.50
2022-08-01T14:00:44.908Z,1.80
2022-08-01T14:03:33.453Z,1.80
2022-08-01T14:06:23.327Z,1.60
2022-08-01T14:09:17.560Z,1.20
2022-08-01T14:12:05.175Z,1.70
2022-08-01T14:14:53.767Z,1.38
2022-08-01T14:17:39.670Z,1.40
2022-08-01T14:20:34.629Z,1.48
2022-08-01T14:23:20.411Z,1.58
2022-08-01T14:26:11.693Z,1.80
2022-08-01T14:28:58.353Z,1.30
2022-08-01T14:31:44.185Z,1.70
2022-08-01T14:34:30.439Z,1.50
2022-08-01T14:37:16.366Z,1.77
2022-08-01T14:40:09.818Z,1.73
2022-08-01T14:42:56.673Z,1.73
2022-08-01T14:45:42.556Z,1.70
2022-08-01T14:48:30.165Z,1.50
2022-08-01T14:51:16.333Z,1.63
2022-08-01T14:54:02.345Z,1.70
2022-08-01T14:56:50.162Z,1.48
2022-08-01T14:59:36.104Z,1.83
2022-08-01T15:02:22.866Z,1.50
2022-08-01T15:05:09.361Z,1.45
2022-08-01T15:07:55.371Z,1.73
2022-08-01T15:10:41.173Z,1.65
2022-08-01T15:13:26.827Z,1.50
2022-08-01T15:16:12.672Z,1.55
2022-08-01T15:18:58.231Z,1.60
2022-08-01T15:21:43.992Z,1.65
2022-08-01T15:24:29.898Z,1.27
2022-08-01T15:27:16.187Z,1.58
2022-08-01T15:30:01.797Z,1.70
2022-08-01T15:32:47.846Z,1.70
2022-08-01T15:35:37.179Z,1.30
2022-08-01T15:38:23.181Z,1.60
2022-08-01T15:41:08.923Z,1.58
2022-08-01T15:43:55.923Z,1.50
2022-08-01T15:46:42.220Z,1.48
2022-08-01T15:49:28.169Z,1.65
2022-08-01T15:52:21.974Z,1.40
2022-08-01T15:55:09.670Z,1.42
2022-08-01T15:57:55.696Z,1.60
2022-08-01T16:00:41.744Z,1.60
2022-08-01T16:03:27.771Z,1.35
2022-08-01T16:06:13.774Z,1.52
2022-08-01T16:08:59.517Z,1.40
2022-08-01T16:11:50.833Z,1.20
2022-08-01T16:14:37.002Z,1.27
2022-08-01T16:17:22.968Z,1.60
2022-08-01T16:20:09.546Z,1.55
2022-08-01T16:22:55.147Z,1.40
2022-08-01T16:25:40.976Z,1.48
2022-08-01T16:28:27.023Z,1.38
2022-08-01T16:31:22.079Z,1.30
2022-08-01T16:34:13.113Z,1.40
2022-08-01T16:37:01.045Z,1.50
2022-08-01T16:39:47.504Z,1.55
2022-08-01T16:42:33.345Z,1.45
2022-08-01T16:45:21.291Z,2.28
2022-08-01T16:48:06.778Z,1.50
2022-08-01T16:50:57.859Z,1.40
2022-08-01T16:53:43.425Z,1.90
2022-08-01T16:56:29.077Z,1.88
2022-08-01T16:59:15.139Z,1.90
2022-08-01T17:02:02.540Z,1.52
2022-08-01T17:04:48.294Z,1.75
2022-08-01T17:07:34.742Z,2.10
2022-08-01T17:10:20.269Z,1.90
2022-08-01T17:13:07.193Z,2.00
2022-08-01T17:15:55.709Z,1.80
2022-08-01T17:18:41.581Z,1.63
2022-08-01T17:21:27.831Z,1.50
2022-08-01T17:24:16.543Z,1.50
2022-08-01T17:27:02.357Z,1.52
2022-08-01T17:29:48.162Z,1.40
2022-08-01T17:32:37.369Z,1.70
2022-08-01T17:35:23.722Z,1.70
2022-08-01T17:38:09.691Z,1.58
2022-08-01T17:40:55.514Z,1.60
2022-08-01T17:43:41.328Z,1.60
2022-08-01T17:46:27.079Z,1.65
2022-08-01T17:49:12.735Z,1.50
2022-08-01T17:51:59.058Z,1.60
2022-08-01T17:54:44.669Z,1.30
2022-08-01T17:57:30.908Z,1.55
2022-08-01T18:00:16.697Z,1.60
2022-08-01T18:03:02.658Z,1.63
2022-08-01T18:05:54.173Z,1.65
2022-08-01T18:08:42.028Z,1.60
2022-08-01T18:11:28.000Z,1.40
2022-08-01T18:14:14.201Z,1.55
2022-08-01T18:16:59.904Z,1.60
2022-08-01T18:19:46.799Z,1.48
2022-08-01T18:22:33.099Z,1.90
2022-08-01T18:25:20.126Z,1.90
2022-08-01T18:28:16.772Z,1.98
2022-08-01T18:31:13.177Z,2.03
2022-08-01T18:33:58.726Z,1.80
2022-08-01T18:36:44.466Z,1.83
2022-08-01T18:39:31.063Z,1.88
2022-08-01T18:42:18.511Z,1.98
2022-08-01T18:45:04.880Z,2.08
2022-08-01T18:47:50.845Z,2.30
2022-08-01T18:50:36.882Z,2.15
2022-08-01T18:53:23.945Z,2.13
2022-08-01T18:56:12.870Z,2.13
2022-08-01T18:58:58.923Z,1.90
2022-08-01T19:01:44.822Z,2.38
2022-08-01T19:04:30.925Z,2.10
2022-08-01T19:07:33.516Z,1.77
2022-08-01T19:10:23.464Z,1.92
2022-08-01T19:13:09.948Z,2.33
2022-08-01T19:15:55.949Z,2.30
2022-08-01T19:18:41.990Z,2.00
2022-08-01T19:21:27.790Z,2.10
2022-08-01T19:24:23.647Z,1.70
2022-08-01T19:27:12.821Z,1.73
2022-08-01T19:30:01.545Z,1.85
2022-08-01T19:32:49.076Z,2.20
2022-08-01T19:35:35.921Z,2.38
2022-08-01T19:38:21.983Z,2.00
2022-08-01T19:41:07.857Z,2.17
2022-08-01T19:44:01.845Z,1.77
2022-08-01T19:46:47.722Z,2.28
2022-08-01T19:49:34.604Z,1.98
2022-08-01T19:52:26.014Z,2.50
2022-08-01T19:55:12.203Z,1.83
2022-08-01T20:01:14.359Z,2.28
2022-08-01T20:04:03.897Z,2.03
2022-08-01T20:06:50.389Z,2.03
2022-08-01T20:09:36.733Z,1.88
2022-08-01T20:12:23.374Z,2.00
2022-08-01T20:15:09.589Z,2.10
2022-08-01T20:17:58.450Z,2.10
2022-08-01T20:20:48.425Z,2.53
2022-08-01T20:23:39.377Z,2.13
2022-08-01T20:26:27.114Z,1.98
2022-08-01T20:29:15.686Z,2.00
2022-08-01T20:32:02.450Z,1.80
2022-08-01T20:34:48.280Z,1.95
2022-08-01T20:38:03.787Z,1.83
2022-08-01T20:40:47.528Z,1.63
2022-08-01T20:43:34.026Z,1.77
2022-08-01T20:46:23.063Z,1.60
2022-08-01T20:49:12.425Z,1.75
2022-08-01T20:51:58.121Z,1.60
2022-08-01T20:54:43.706Z,1.52
2022-08-01T20:57:31.307Z,1.90
2022-08-01T21:00:20.393Z,1.50
2022-08-01T21:03:12.141Z,1.83
2022-08-01T21:06:08.886Z,1.90
2022-08-01T21:08:58.358Z,1.58
2022-08-01T21:12:03.426Z,2.10
2022-08-01T21:14:57.365Z,1.67
2022-08-01T21:17:57.974Z,1.77
2022-08-01T21:20:52.888Z,1.85
2022-08-01T21:23:52.454Z,1.63
2022-08-01T21:26:39.117Z,2.08
2022-08-01T21:29:25.937Z,1.52
2022-08-01T21:32:15.537Z,1.52
2022-08-01T21:35:03.124Z,1.60
2022-08-01T21:37:52.099Z,1.45
2022-08-01T21:40:38.650Z,2.00
2022-08-01T21:43:24.430Z,2.45
2022-08-01T21:46:11.762Z,2.10
2022-08-01T21:48:58.334Z,2.15
2022-08-01T21:51:51.695Z,2.10
2022-08-01T21:54:53.090Z,2.08
2022-08-01T21:57:57.434Z,2.03
2022-08-01T22:00:51.046Z,2.08
2022-08-01T22:03:46.659Z,1.92
2022-08-01T22:06:34.988Z,2.05
2022-08-01T22:09:21.980Z,2.20
2022-08-01T22:12:08.385Z,1.90
2022-08-01T22:14:55.969Z,1.90
2022-08-01T22:17:42.212Z,1.70
2022-08-01T22:20:28.645Z,1.65
2022-08-01T22:23:14.583Z,2.08
2022-08-01T22:26:00.508Z,1.90
2022-08-01T22:28:46.809Z,1.83
2022-08-01T22:31:37.857Z,1.58
2022-08-01T22:34:27.595Z,1.65
2022-08-01T22:37:15.001Z,1.40
2022-08-01T22:40:04.744Z,1.65
2022-08-01T22:42:59.586Z,1.70
2022-08-01T22:45:51.558Z,1.67
2022-08-01T22:49:02.017Z,2.00
2022-08-01T22:51:54.821Z,2.17
2022-08-01T22:54:42.427Z,1.85
2022-08-01T22:57:53.186Z,1.70
2022-08-01T23:00:41.285Z,1.63
2022-08-01T23:03:33.918Z,1.80
2022-08-01T23:06:19.868Z,1.90
2022-08-01T23:09:06.261Z,1.95
2022-08-01T23:11:53.183Z,1.75
2022-08-01T23:14:39.642Z,1.30
2022-08-01T23:17:29.622Z,1.80
2022-08-01T23:20:16.589Z,1.30
2022-08-01T23:23:04.344Z,1.60
2022-08-01T23:25:50.353Z,1.40
2022-08-01T23:28:36.714Z,1.60
2022-08-01T23:31:25.824Z,1.67
2022-08-01T23:34:28.834Z,1.48
2022-08-01T23:37:15.634Z,1.75
2022-08-01T23:40:01.454Z,1.58
2022-08-01T23:42:47.793Z,1.65
2022-08-01T23:46:02.709Z,1.73
2022-08-01T23:48:40.018Z,1.40
2022-08-01T23:51:25.679Z,1.55
2022-08-01T23:54:12.249Z,1.45
2022-08-01T23:56:59.465Z,1.65
2022-08-01T23:59:53.617Z,1.48
